KFLLKEYW

Guest
Details From KFLL - Fort Lauderdale Hollywood Intl
To KEYW - Key West Intl
Flight Number -
Tags generated
Created
Modified
Stats Distance 126 nm / 234 km
Max Altitude 14,700 ft / 4,481 m
Waypoints 3
Social Downloads 0
Likes 0
Share VATSIM

Download

Looking for another format? Having issues loading an existing format? Contact us
Advertisement - Login to hide

Notes

Basic altitude profile: - Ascent Rate: 1200ft/min - Ascent Speed: 250kts - Cruise Altitude: 20000ft - Cruise Speed: 420kts - Descent Rate: 1200ft/min - Descent Speed: 250kts Options: - Use NATs: yes - Use PACOTS: yes - Use low airways: yes - Use high airways: yes

Route

KFLL FOGSO KEYW

ID Type Via Altitude Latitude Longitude Leg Dist Tot Dist Heading (true) Name
O KFLL APT - 0 ft / 0 m 26.07164˚ -80.15269˚ - 0 nm - Fort Lauderdale Hollywood Intl
FOGSO FIX - 14,700 ft / 4,481 m 25.63031˚ -80.73670˚ 41 nm 41 nm 230° / 230° -
O KEYW APT - 0 ft / 0 m 24.55612˚ -81.75955˚ 85 nm 126 nm 221° / 221° Key West Intl

Altitude Profile

Advertisement - Login to hide

KFLL

Details ICAO KFLL (FLL)
Name Fort Lauderdale Hollywood Intl
Region United States
Timezone America/New_York (UTC-4.0)
Stats Elevation 9 ft / 3 m (AMSL)
Location 26.071638° -80.152694°
Runways 2
Magnetic Variation 6.809° W

METAR

KFLL 222053Z 11014KT 10SM SCT026 SCT034 BKN110 27/23 A3004 RMK AO2 SLP171 T02670228 58012

Decode

TAF

TAF AMD KFLL 222113Z 2221/2324 12015KT P6SM VCSH SCT025 SCT040 BKN110 FM230200 11008KT P6SM SCT030 BKN120 FM231300 13012KT P6SM SCT035 BKN150

Decode

Departure Runways

ID Width Length Bearing (true) Bearing (mag) Surface Threshold Offset Overrun Length
09L 150 ft / 46 m 8,987 ft / 2,739 m 90.35° 97.16° Asphalt 577 ft / 176 m 10 ft / 3 m
09R 100 ft / 30 m 5,268 ft / 1,606 m 90.38° 97.19° Asphalt 320 ft / 98 m 0 ft / 0 m
27L 100 ft / 30 m 5,268 ft / 1,606 m 270.39° 277.20° Asphalt 142 ft / 43 m 0 ft / 0 m
27R 150 ft / 46 m 8,987 ft / 2,739 m 270.37° 277.18° Asphalt 604 ft / 184 m 10 ft / 3 m

KEYW

Details ICAO KEYW (EYW)
Name Key West Intl
Region United States
Timezone America/New_York (UTC-4.0)
Stats Elevation 2 ft / 1 m (AMSL)
Location 24.556124° -81.759546°
Runways 1
Magnetic Variation 5.593° W

METAR

KEYW 222053Z 11016KT 10SM FEW021 BKN100 27/25 A2999 RMK AO2 SLP154 T02720250 56013

Decode

TAF

KEYW 221737Z 2218/2318 10015G21KT P6SM VCSH SCT020 BKN045 BKN250 TEMPO 2220/2224 2SM SHRA BKN020 BKN040 OVC100

Decode

Destination Runways

ID Width Length Bearing (true) Bearing (mag) Surface Threshold Offset Overrun Length
09 100 ft / 30 m 4,794 ft / 1,461 m 89.38° 94.97° Asphalt 151 ft / 46 m 0 ft / 0 m
27 100 ft / 30 m 4,794 ft / 1,461 m 269.39° 274.98° Asphalt 151 ft / 46 m 0 ft / 0 m

Popular Alternatives